sensor_id;sensor_type;location;lat;lon;timestamp;P1;durP1;ratioP1;P2;durP2;ratioP2
9524;SDS011;15940;48.734;9.112;2023-02-15T00:00:12;30.27;;;19.73;;
9524;SDS011;15940;48.734;9.112;2023-02-15T00:02:39;28.73;;;18.40;;
9524;SDS011;15940;48.734;9.112;2023-02-15T00:05:07;27.17;;;18.90;;
9524;SDS011;15940;48.734;9.112;2023-02-15T00:07:35;28.37;;;18.93;;
9524;SDS011;15940;48.734;9.112;2023-02-15T00:10:02;30.17;;;18.70;;
9524;SDS011;15940;48.734;9.112;2023-02-15T00:12:34;25.17;;;18.13;;
9524;SDS011;15940;48.734;9.112;2023-02-15T00:15:01;26.30;;;18.10;;
9524;SDS011;15940;48.734;9.112;2023-02-15T00:17:29;24.07;;;17.47;;
9524;SDS011;15940;48.734;9.112;2023-02-15T00:19:57;27.53;;;19.23;;
9524;SDS011;15940;48.734;9.112;2023-02-15T00:22:26;27.47;;;18.13;;
9524;SDS011;15940;48.734;9.112;2023-02-15T00:24:58;28.03;;;18.07;;
9524;SDS011;15940;48.734;9.112;2023-02-15T00:27:25;29.33;;;19.33;;
9524;SDS011;15940;48.734;9.112;2023-02-15T00:29:55;28.87;;;18.73;;
9524;SDS011;15940;48.734;9.112;2023-02-15T00:32:22;25.93;;;18.10;;
9524;SDS011;15940;48.734;9.112;2023-02-15T00:34:49;28.57;;;18.60;;
9524;SDS011;15940;48.734;9.112;2023-02-15T00:37:17;29.57;;;18.63;;
9524;SDS011;15940;48.734;9.112;2023-02-15T00:39:45;28.13;;;18.37;;
9524;SDS011;15940;48.734;9.112;2023-02-15T00:42:12;25.93;;;17.93;;
9524;SDS011;15940;48.734;9.112;2023-02-15T00:44:41;29.70;;;19.57;;
9524;SDS011;15940;48.734;9.112;2023-02-15T00:47:09;30.70;;;17.97;;
9524;SDS011;15940;48.734;9.112;2023-02-15T00:49:39;27.10;;;17.97;;
9524;SDS011;15940;48.734;9.112;2023-02-15T00:52:10;25.20;;;18.13;;
9524;SDS011;15940;48.734;9.112;2023-02-15T00:54:39;26.13;;;18.60;;
9524;SDS011;15940;48.734;9.112;2023-02-15T00:57:07;27.47;;;18.37;;
9524;SDS011;15940;48.734;9.112;2023-02-15T00:59:34;26.90;;;19.60;;
9524;SDS011;15940;48.734;9.112;2023-02-15T01:02:12;29.77;;;18.27;;
9524;SDS011;15940;48.734;9.112;2023-02-15T01:04:39;27.37;;;18.77;;
9524;SDS011;15940;48.734;9.112;2023-02-15T01:07:06;28.13;;;19.30;;
9524;SDS011;15940;48.734;9.112;2023-02-15T01:09:35;26.60;;;17.80;;
9524;SDS011;15940;48.734;9.112;2023-02-15T01:12:04;24.93;;;17.43;;
9524;SDS011;15940;48.734;9.112;2023-02-15T01:14:31;27.57;;;18.67;;
9524;SDS011;15940;48.734;9.112;2023-02-15T01:16:58;27.03;;;19.17;;
9524;SDS011;15940;48.734;9.112;2023-02-15T01:19:26;24.73;;;17.10;;
9524;SDS011;15940;48.734;9.112;2023-02-15T01:21:54;26.17;;;17.50;;
9524;SDS011;15940;48.734;9.112;2023-02-15T01:24:21;24.93;;;17.00;;
9524;SDS011;15940;48.734;9.112;2023-02-15T01:26:48;29.13;;;18.07;;
9524;SDS011;15940;48.734;9.112;2023-02-15T01:29:15;27.67;;;17.57;;
9524;SDS011;15940;48.734;9.112;2023-02-15T01:31:42;24.60;;;16.90;;
9524;SDS011;15940;48.734;9.112;2023-02-15T01:34:11;22.30;;;16.07;;
9524;SDS011;15940;48.734;9.112;2023-02-15T01:36:39;24.20;;;16.50;;
9524;SDS011;15940;48.734;9.112;2023-02-15T01:39:06;23.37;;;16.47;;
9524;SDS011;15940;48.734;9.112;2023-02-15T01:41:35;24.37;;;16.00;;
9524;SDS011;15940;48.734;9.112;2023-02-15T01:44:02;26.27;;;16.97;;
9524;SDS011;15940;48.734;9.112;2023-02-15T01:46:46;22.53;;;15.70;;
9524;SDS011;15940;48.734;9.112;2023-02-15T01:49:19;22.40;;;15.53;;
9524;SDS011;15940;48.734;9.112;2023-02-15T01:51:54;24.07;;;15.40;;
9524;SDS011;15940;48.734;9.112;2023-02-15T01:54:23;26.07;;;16.23;;
9524;SDS011;15940;48.734;9.112;2023-02-15T01:57:03;24.93;;;16.57;;
9524;SDS011;15940;48.734;9.112;2023-02-15T01:59:37;24.07;;;15.70;;
9524;SDS011;15940;48.734;9.112;2023-02-15T02:02:17;23.10;;;16.77;;
9524;SDS011;15940;48.734;9.112;2023-02-15T02:04:50;27.57;;;17.93;;
9524;SDS011;15940;48.734;9.112;2023-02-15T02:07:27;25.10;;;16.73;;
9524;SDS011;15940;48.734;9.112;2023-02-15T02:09:59;24.37;;;16.47;;
9524;SDS011;15940;48.734;9.112;2023-02-15T02:12:27;23.13;;;16.63;;
9524;SDS011;15940;48.734;9.112;2023-02-15T02:14:58;25.90;;;17.07;;
9524;SDS011;15940;48.734;9.112;2023-02-15T02:17:29;24.10;;;17.33;;
9524;SDS011;15940;48.734;9.112;2023-02-15T02:20:17;23.47;;;16.60;;
9524;SDS011;15940;48.734;9.112;2023-02-15T02:23:35;22.80;;;15.60;;
9524;SDS011;15940;48.734;9.112;2023-02-15T02:29:39;23.97;;;16.13;;
9524;SDS011;15940;48.734;9.112;2023-02-15T02:35:45;23.93;;;15.77;;
9524;SDS011;15940;48.734;9.112;2023-02-15T02:38:26;23.27;;;14.93;;
9524;SDS011;15940;48.734;9.112;2023-02-15T02:41:07;24.10;;;16.93;;
9524;SDS011;15940;48.734;9.112;2023-02-15T02:43:46;20.63;;;15.03;;
9524;SDS011;15940;48.734;9.112;2023-02-15T02:46:24;24.67;;;16.50;;
9524;SDS011;15940;48.734;9.112;2023-02-15T02:49:08;25.30;;;16.40;;
9524;SDS011;15940;48.734;9.112;2023-02-15T02:51:36;26.07;;;16.97;;
9524;SDS011;15940;48.734;9.112;2023-02-15T02:54:04;24.47;;;16.50;;
9524;SDS011;15940;48.734;9.112;2023-02-15T02:56:33;23.97;;;16.10;;
9524;SDS011;15940;48.734;9.112;2023-02-15T02:59:06;23.43;;;16.00;;
9524;SDS011;15940;48.734;9.112;2023-02-15T03:01:40;23.80;;;15.60;;
9524;SDS011;15940;48.734;9.112;2023-02-15T03:04:15;20.50;;;14.83;;
9524;SDS011;15940;48.734;9.112;2023-02-15T03:06:46;24.20;;;16.20;;
9524;SDS011;15940;48.734;9.112;2023-02-15T03:09:18;24.37;;;16.13;;
9524;SDS011;15940;48.734;9.112;2023-02-15T03:12:00;20.33;;;14.23;;
9524;SDS011;15940;48.734;9.112;2023-02-15T03:14:29;24.67;;;14.67;;
9524;SDS011;15940;48.734;9.112;2023-02-15T03:16:56;20.83;;;14.47;;
9524;SDS011;15940;48.734;9.112;2023-02-15T03:19:27;25.90;;;16.60;;
9524;SDS011;15940;48.734;9.112;2023-02-15T03:21:59;23.20;;;15.30;;
9524;SDS011;15940;48.734;9.112;2023-02-15T03:24:35;22.47;;;15.30;;
9524;SDS011;15940;48.734;9.112;2023-02-15T03:27:09;23.33;;;15.13;;
9524;SDS011;15940;48.734;9.112;2023-02-15T03:29:42;23.10;;;14.63;;
9524;SDS011;15940;48.734;9.112;2023-02-15T03:32:21;22.07;;;14.97;;
9524;SDS011;15940;48.734;9.112;2023-02-15T03:34:54;22.03;;;15.03;;
9524;SDS011;15940;48.734;9.112;2023-02-15T03:37:24;21.67;;;14.63;;
9524;SDS011;15940;48.734;9.112;2023-02-15T03:39:59;23.17;;;14.77;;
9524;SDS011;15940;48.734;9.112;2023-02-15T03:42:51;21.80;;;14.93;;
9524;SDS011;15940;48.734;9.112;2023-02-15T03:45:27;21.33;;;15.10;;
9524;SDS011;15940;48.734;9.112;2023-02-15T03:47:58;19.33;;;14.27;;
9524;SDS011;15940;48.734;9.112;2023-02-15T03:50:29;19.13;;;13.83;;
9524;SDS011;15940;48.734;9.112;2023-02-15T03:53:20;23.53;;;14.53;;
9524;SDS011;15940;48.734;9.112;2023-02-15T03:55:49;20.43;;;14.77;;
9524;SDS011;15940;48.734;9.112;2023-02-15T03:58:25;20.27;;;14.23;;
9524;SDS011;15940;48.734;9.112;2023-02-15T04:01:10;22.67;;;13.93;;
9524;SDS011;15940;48.734;9.112;2023-02-15T04:04:09;21.73;;;14.30;;
9524;SDS011;15940;48.734;9.112;2023-02-15T04:06:44;20.53;;;13.73;;
9524;SDS011;15940;48.734;9.112;2023-02-15T04:09:11;21.73;;;14.50;;
9524;SDS011;15940;48.734;9.112;2023-02-15T04:11:56;22.00;;;14.80;;
9524;SDS011;15940;48.734;9.112;2023-02-15T04:14:23;25.30;;;15.17;;
9524;SDS011;15940;48.734;9.112;2023-02-15T04:17:08;22.00;;;14.30;;
9524;SDS011;15940;48.734;9.112;2023-02-15T04:19:37;22.57;;;14.93;;
9524;SDS011;15940;48.734;9.112;2023-02-15T04:22:24;24.30;;;15.50;;
9524;SDS011;15940;48.734;9.112;2023-02-15T04:25:08;23.10;;;14.60;;
9524;SDS011;15940;48.734;9.112;2023-02-15T04:27:36;22.07;;;14.27;;
9524;SDS011;15940;48.734;9.112;2023-02-15T04:30:07;20.70;;;14.57;;
9524;SDS011;15940;48.734;9.112;2023-02-15T04:32:37;21.70;;;14.77;;
9524;SDS011;15940;48.734;9.112;2023-02-15T04:35:05;20.93;;;14.00;;
9524;SDS011;15940;48.734;9.112;2023-02-15T04:37:34;20.70;;;14.13;;
9524;SDS011;15940;48.734;9.112;2023-02-15T04:40:02;19.07;;;13.40;;
9524;SDS011;15940;48.734;9.112;2023-02-15T04:42:35;21.37;;;14.03;;
9524;SDS011;15940;48.734;9.112;2023-02-15T04:45:02;23.70;;;14.77;;
9524;SDS011;15940;48.734;9.112;2023-02-15T04:47:34;21.73;;;14.37;;
9524;SDS011;15940;48.734;9.112;2023-02-15T04:50:01;23.27;;;14.83;;
9524;SDS011;15940;48.734;9.112;2023-02-15T04:52:29;21.20;;;14.63;;
9524;SDS011;15940;48.734;9.112;2023-02-15T04:54:57;24.50;;;14.73;;
9524;SDS011;15940;48.734;9.112;2023-02-15T04:57:24;21.07;;;14.20;;
9524;SDS011;15940;48.734;9.112;2023-02-15T04:59:51;25.40;;;14.97;;
9524;SDS011;15940;48.734;9.112;2023-02-15T05:02:18;22.70;;;15.33;;
9524;SDS011;15940;48.734;9.112;2023-02-15T05:04:45;23.27;;;15.00;;
9524;SDS011;15940;48.734;9.112;2023-02-15T05:07:12;25.40;;;14.93;;
9524;SDS011;15940;48.734;9.112;2023-02-15T05:09:39;22.40;;;15.13;;
9524;SDS011;15940;48.734;9.112;2023-02-15T05:12:08;25.07;;;16.00;;
9524;SDS011;15940;48.734;9.112;2023-02-15T05:14:38;22.53;;;15.57;;
9524;SDS011;15940;48.734;9.112;2023-02-15T05:17:07;26.37;;;16.00;;
9524;SDS011;15940;48.734;9.112;2023-02-15T05:19:36;25.17;;;16.33;;
9524;SDS011;15940;48.734;9.112;2023-02-15T05:22:03;29.77;;;17.13;;
9524;SDS011;15940;48.734;9.112;2023-02-15T05:24:30;26.50;;;16.43;;
9524;SDS011;15940;48.734;9.112;2023-02-15T05:27:16;28.37;;;16.97;;
9524;SDS011;15940;48.734;9.112;2023-02-15T05:30:00;25.83;;;16.87;;
9524;SDS011;15940;48.734;9.112;2023-02-15T05:32:27;27.13;;;17.43;;
9524;SDS011;15940;48.734;9.112;2023-02-15T05:34:54;29.43;;;16.90;;
9524;SDS011;15940;48.734;9.112;2023-02-15T05:37:23;27.73;;;16.90;;
9524;SDS011;15940;48.734;9.112;2023-02-15T05:39:51;24.47;;;15.50;;
9524;SDS011;15940;48.734;9.112;2023-02-15T05:42:20;26.73;;;16.63;;
9524;SDS011;15940;48.734;9.112;2023-02-15T05:44:48;25.10;;;15.00;;
9524;SDS011;15940;48.734;9.112;2023-02-15T05:47:15;26.00;;;15.77;;
9524;SDS011;15940;48.734;9.112;2023-02-15T05:49:42;24.77;;;16.30;;
9524;SDS011;15940;48.734;9.112;2023-02-15T05:52:12;23.97;;;14.93;;
9524;SDS011;15940;48.734;9.112;2023-02-15T05:54:39;22.97;;;15.43;;
9524;SDS011;15940;48.734;9.112;2023-02-15T05:57:06;25.43;;;15.93;;
9524;SDS011;15940;48.734;9.112;2023-02-15T05:59:35;22.53;;;15.03;;
9524;SDS011;15940;48.734;9.112;2023-02-15T06:02:02;23.07;;;14.93;;
9524;SDS011;15940;48.734;9.112;2023-02-15T06:04:32;20.07;;;14.40;;
9524;SDS011;15940;48.734;9.112;2023-02-15T06:07:00;22.67;;;15.20;;
9524;SDS011;15940;48.734;9.112;2023-02-15T06:09:28;22.23;;;15.57;;
9524;SDS011;15940;48.734;9.112;2023-02-15T06:11:59;26.97;;;15.47;;
9524;SDS011;15940;48.734;9.112;2023-02-15T06:14:26;24.40;;;16.10;;
9524;SDS011;15940;48.734;9.112;2023-02-15T06:16:55;28.43;;;17.10;;
9524;SDS011;15940;48.734;9.112;2023-02-15T06:19:22;23.93;;;15.90;;
9524;SDS011;15940;48.734;9.112;2023-02-15T06:21:49;20.73;;;15.17;;
9524;SDS011;15940;48.734;9.112;2023-02-15T06:24:18;27.03;;;15.93;;
9524;SDS011;15940;48.734;9.112;2023-02-15T06:26:47;28.33;;;16.07;;
9524;SDS011;15940;48.734;9.112;2023-02-15T06:29:14;24.20;;;16.27;;
9524;SDS011;15940;48.734;9.112;2023-02-15T06:31:41;24.57;;;16.47;;
9524;SDS011;15940;48.734;9.112;2023-02-15T06:34:10;26.83;;;16.30;;
9524;SDS011;15940;48.734;9.112;2023-02-15T06:36:38;22.53;;;15.93;;
9524;SDS011;15940;48.734;9.112;2023-02-15T06:39:05;25.50;;;16.60;;
9524;SDS011;15940;48.734;9.112;2023-02-15T06:41:32;23.27;;;15.30;;
9524;SDS011;15940;48.734;9.112;2023-02-15T06:43:59;25.97;;;16.80;;
9524;SDS011;15940;48.734;9.112;2023-02-15T06:46:26;27.80;;;16.53;;
9524;SDS011;15940;48.734;9.112;2023-02-15T06:48:53;23.37;;;16.17;;
9524;SDS011;15940;48.734;9.112;2023-02-15T06:51:21;23.80;;;16.43;;
9524;SDS011;15940;48.734;9.112;2023-02-15T06:53:48;27.87;;;16.43;;
9524;SDS011;15940;48.734;9.112;2023-02-15T06:56:15;22.53;;;15.73;;
9524;SDS011;15940;48.734;9.112;2023-02-15T06:58:42;23.40;;;16.20;;
9524;SDS011;15940;48.734;9.112;2023-02-15T07:01:14;22.67;;;15.83;;
9524;SDS011;15940;48.734;9.112;2023-02-15T07:03:42;27.03;;;18.10;;
9524;SDS011;15940;48.734;9.112;2023-02-15T07:06:10;25.60;;;16.60;;
9524;SDS011;15940;48.734;9.112;2023-02-15T07:08:39;25.03;;;17.13;;
9524;SDS011;15940;48.734;9.112;2023-02-15T07:11:06;26.10;;;16.83;;
9524;SDS011;15940;48.734;9.112;2023-02-15T07:13:52;25.30;;;15.83;;
9524;SDS011;15940;48.734;9.112;2023-02-15T07:16:19;25.17;;;15.93;;
9524;SDS011;15940;48.734;9.112;2023-02-15T07:18:46;25.30;;;17.10;;
9524;SDS011;15940;48.734;9.112;2023-02-15T07:21:16;26.63;;;15.70;;
9524;SDS011;15940;48.734;9.112;2023-02-15T07:23:45;21.60;;;15.00;;
9524;SDS011;15940;48.734;9.112;2023-02-15T07:26:15;23.23;;;14.97;;
9524;SDS011;15940;48.734;9.112;2023-02-15T07:28:42;23.57;;;15.07;;
9524;SDS011;15940;48.734;9.112;2023-02-15T07:31:10;21.67;;;14.60;;
9524;SDS011;15940;48.734;9.112;2023-02-15T07:33:39;25.13;;;14.43;;
9524;SDS011;15940;48.734;9.112;2023-02-15T07:36:07;24.70;;;15.27;;
9524;SDS011;15940;48.734;9.112;2023-02-15T07:38:37;23.47;;;15.37;;
9524;SDS011;15940;48.734;9.112;2023-02-15T07:41:13;19.67;;;14.10;;
9524;SDS011;15940;48.734;9.112;2023-02-15T07:43:42;23.67;;;16.37;;
9524;SDS011;15940;48.734;9.112;2023-02-15T07:46:14;22.27;;;15.70;;
9524;SDS011;15940;48.734;9.112;2023-02-15T07:48:43;24.37;;;15.80;;
9524;SDS011;15940;48.734;9.112;2023-02-15T07:51:13;27.13;;;16.90;;
9524;SDS011;15940;48.734;9.112;2023-02-15T07:53:42;31.03;;;16.97;;
9524;SDS011;15940;48.734;9.112;2023-02-15T07:56:12;29.33;;;17.27;;
9524;SDS011;15940;48.734;9.112;2023-02-15T07:58:40;29.67;;;17.90;;
9524;SDS011;15940;48.734;9.112;2023-02-15T08:01:22;27.63;;;17.30;;
9524;SDS011;15940;48.734;9.112;2023-02-15T08:03:53;28.07;;;17.60;;
9524;SDS011;15940;48.734;9.112;2023-02-15T08:06:21;34.67;;;17.47;;
9524;SDS011;15940;48.734;9.112;2023-02-15T08:08:50;27.27;;;17.60;;
9524;SDS011;15940;48.734;9.112;2023-02-15T08:11:27;27.40;;;17.20;;
9524;SDS011;15940;48.734;9.112;2023-02-15T08:13:58;26.60;;;16.80;;
9524;SDS011;15940;48.734;9.112;2023-02-15T08:16:30;28.30;;;17.43;;
9524;SDS011;15940;48.734;9.112;2023-02-15T08:19:01;25.73;;;17.70;;
9524;SDS011;15940;48.734;9.112;2023-02-15T08:21:31;30.90;;;18.90;;
9524;SDS011;15940;48.734;9.112;2023-02-15T08:24:00;28.83;;;18.20;;
9524;SDS011;15940;48.734;9.112;2023-02-15T08:26:44;32.33;;;18.57;;
9524;SDS011;15940;48.734;9.112;2023-02-15T08:29:12;30.73;;;17.80;;
9524;SDS011;15940;48.734;9.112;2023-02-15T08:31:45;27.23;;;17.00;;
9524;SDS011;15940;48.734;9.112;2023-02-15T08:34:14;29.53;;;16.67;;
9524;SDS011;15940;48.734;9.112;2023-02-15T08:36:49;29.37;;;17.67;;
9524;SDS011;15940;48.734;9.112;2023-02-15T08:39:21;28.27;;;17.03;;
9524;SDS011;15940;48.734;9.112;2023-02-15T08:41:51;27.77;;;17.50;;
9524;SDS011;15940;48.734;9.112;2023-02-15T08:44:22;32.13;;;17.00;;
9524;SDS011;15940;48.734;9.112;2023-02-15T08:46:50;33.83;;;17.20;;
9524;SDS011;15940;48.734;9.112;2023-02-15T08:49:17;25.70;;;17.60;;
9524;SDS011;15940;48.734;9.112;2023-02-15T08:51:49;28.60;;;17.07;;
9524;SDS011;15940;48.734;9.112;2023-02-15T08:54:17;24.47;;;17.50;;
9524;SDS011;15940;48.734;9.112;2023-02-15T08:56:48;23.63;;;17.23;;
9524;SDS011;15940;48.734;9.112;2023-02-15T08:59:18;27.97;;;18.10;;
9524;SDS011;15940;48.734;9.112;2023-02-15T09:01:49;24.17;;;17.50;;
9524;SDS011;15940;48.734;9.112;2023-02-15T09:04:19;26.90;;;18.97;;
9524;SDS011;15940;48.734;9.112;2023-02-15T09:06:49;27.30;;;17.77;;
9524;SDS011;15940;48.734;9.112;2023-02-15T09:09:18;26.20;;;18.17;;
9524;SDS011;15940;48.734;9.112;2023-02-15T09:11:47;27.93;;;19.07;;
9524;SDS011;15940;48.734;9.112;2023-02-15T09:14:19;25.40;;;17.27;;
9524;SDS011;15940;48.734;9.112;2023-02-15T09:16:51;26.23;;;17.77;;
9524;SDS011;15940;48.734;9.112;2023-02-15T09:19:20;24.97;;;17.47;;
9524;SDS011;15940;48.734;9.112;2023-02-15T09:21:50;26.03;;;16.93;;
9524;SDS011;15940;48.734;9.112;2023-02-15T09:24:18;23.43;;;16.67;;
9524;SDS011;15940;48.734;9.112;2023-02-15T09:26:48;23.63;;;16.27;;
9524;SDS011;15940;48.734;9.112;2023-02-15T09:29:17;21.73;;;16.17;;
9524;SDS011;15940;48.734;9.112;2023-02-15T09:31:48;23.80;;;16.63;;
9524;SDS011;15940;48.734;9.112;2023-02-15T09:34:21;22.33;;;16.13;;
9524;SDS011;15940;48.734;9.112;2023-02-15T09:36:53;20.90;;;15.83;;
9524;SDS011;15940;48.734;9.112;2023-02-15T09:39:29;20.00;;;15.47;;
9524;SDS011;15940;48.734;9.112;2023-02-15T09:42:09;19.50;;;14.23;;
9524;SDS011;15940;48.734;9.112;2023-02-15T09:45:00;22.20;;;14.70;;
9524;SDS011;15940;48.734;9.112;2023-02-15T09:51:18;18.23;;;14.53;;
9524;SDS011;15940;48.734;9.112;2023-02-15T09:54:15;19.00;;;15.17;;
9524;SDS011;15940;48.734;9.112;2023-02-15T09:57:00;19.13;;;14.83;;
9524;SDS011;15940;48.734;9.112;2023-02-15T09:59:47;19.33;;;14.23;;
9524;SDS011;15940;48.734;9.112;2023-02-15T10:02:31;18.57;;;14.60;;
9524;SDS011;15940;48.734;9.112;2023-02-15T10:05:21;18.27;;;14.67;;
9524;SDS011;15940;48.734;9.112;2023-02-15T10:08:13;17.53;;;13.10;;
9524;SDS011;15940;48.734;9.112;2023-02-15T10:11:08;17.67;;;13.33;;
9524;SDS011;15940;48.734;9.112;2023-02-15T10:14:08;18.13;;;13.70;;
9524;SDS011;15940;48.734;9.112;2023-02-15T10:17:06;16.17;;;13.40;;
9524;SDS011;15940;48.734;9.112;2023-02-15T10:19:50;20.57;;;12.93;;
9524;SDS011;15940;48.734;9.112;2023-02-15T10:22:34;20.57;;;13.33;;
9524;SDS011;15940;48.734;9.112;2023-02-15T10:25:21;16.50;;;12.87;;
9524;SDS011;15940;48.734;9.112;2023-02-15T10:28:06;23.37;;;13.07;;
9524;SDS011;15940;48.734;9.112;2023-02-15T10:30:46;21.10;;;13.60;;
9524;SDS011;15940;48.734;9.112;2023-02-15T10:33:24;17.93;;;13.90;;
9524;SDS011;15940;48.734;9.112;2023-02-15T10:36:19;20.47;;;14.07;;
9524;SDS011;15940;48.734;9.112;2023-02-15T10:39:04;22.70;;;14.43;;
9524;SDS011;15940;48.734;9.112;2023-02-15T10:41:50;20.53;;;13.40;;
9524;SDS011;15940;48.734;9.112;2023-02-15T10:44:32;24.10;;;13.30;;
9524;SDS011;15940;48.734;9.112;2023-02-15T10:50:57;19.77;;;14.27;;
9524;SDS011;15940;48.734;9.112;2023-02-15T10:53:34;18.87;;;12.70;;
9524;SDS011;15940;48.734;9.112;2023-02-15T10:56:35;23.27;;;13.70;;
9524;SDS011;15940;48.734;9.112;2023-02-15T11:02:53;20.43;;;13.50;;
9524;SDS011;15940;48.734;9.112;2023-02-15T11:05:44;25.97;;;14.17;;
9524;SDS011;15940;48.734;9.112;2023-02-15T11:08:27;22.07;;;12.80;;
9524;SDS011;15940;48.734;9.112;2023-02-15T11:11:02;23.17;;;14.30;;
9524;SDS011;15940;48.734;9.112;2023-02-15T11:13:37;21.43;;;13.10;;
9524;SDS011;15940;48.734;9.112;2023-02-15T11:16:12;19.77;;;13.47;;
9524;SDS011;15940;48.734;9.112;2023-02-15T11:18:46;15.90;;;12.10;;
9524;SDS011;15940;48.734;9.112;2023-02-15T11:21:22;20.67;;;13.23;;
9524;SDS011;15940;48.734;9.112;2023-02-15T11:23:54;27.57;;;13.80;;
9524;SDS011;15940;48.734;9.112;2023-02-15T11:26:27;17.40;;;13.20;;
9524;SDS011;15940;48.734;9.112;2023-02-15T11:29:06;15.80;;;12.83;;
9524;SDS011;15940;48.734;9.112;2023-02-15T11:31:44;20.17;;;13.20;;
9524;SDS011;15940;48.734;9.112;2023-02-15T11:34:24;16.97;;;12.50;;
9524;SDS011;15940;48.734;9.112;2023-02-15T11:36:59;15.63;;;12.97;;
9524;SDS011;15940;48.734;9.112;2023-02-15T11:39:34;18.97;;;13.67;;
9524;SDS011;15940;48.734;9.112;2023-02-15T11:42:09;20.43;;;13.90;;
9524;SDS011;15940;48.734;9.112;2023-02-15T11:44:46;15.93;;;12.87;;
9524;SDS011;15940;48.734;9.112;2023-02-15T11:47:22;20.57;;;13.30;;
9524;SDS011;15940;48.734;9.112;2023-02-15T11:49:50;16.47;;;13.90;;
9524;SDS011;15940;48.734;9.112;2023-02-15T11:52:17;22.17;;;14.33;;
9524;SDS011;15940;48.734;9.112;2023-02-15T11:54:45;18.90;;;14.43;;
9524;SDS011;15940;48.734;9.112;2023-02-15T11:57:21;17.73;;;14.53;;
9524;SDS011;15940;48.734;9.112;2023-02-15T12:00:00;20.47;;;13.50;;
9524;SDS011;15940;48.734;9.112;2023-02-15T12:02:37;16.50;;;14.30;;
9524;SDS011;15940;48.734;9.112;2023-02-15T12:05:09;24.43;;;14.47;;
9524;SDS011;15940;48.734;9.112;2023-02-15T12:07:43;21.83;;;15.00;;
9524;SDS011;15940;48.734;9.112;2023-02-15T12:10:17;19.00;;;15.37;;
9524;SDS011;15940;48.734;9.112;2023-02-15T12:15:46;22.00;;;15.33;;
9524;SDS011;15940;48.734;9.112;2023-02-15T12:18:33;23.90;;;17.07;;
9524;SDS011;15940;48.734;9.112;2023-02-15T12:21:10;19.57;;;15.97;;
9524;SDS011;15940;48.734;9.112;2023-02-15T12:23:43;23.13;;;16.30;;
9524;SDS011;15940;48.734;9.112;2023-02-15T12:26:23;25.97;;;16.37;;
9524;SDS011;15940;48.734;9.112;2023-02-15T12:29:12;22.53;;;15.17;;
9524;SDS011;15940;48.734;9.112;2023-02-15T12:31:48;21.23;;;16.20;;
9524;SDS011;15940;48.734;9.112;2023-02-15T12:34:21;20.17;;;16.23;;
9524;SDS011;15940;48.734;9.112;2023-02-15T12:37:15;23.37;;;16.67;;
9524;SDS011;15940;48.734;9.112;2023-02-15T12:40:00;22.00;;;16.17;;
9524;SDS011;15940;48.734;9.112;2023-02-15T12:42:51;22.43;;;15.87;;
9524;SDS011;15940;48.734;9.112;2023-02-15T12:45:29;19.03;;;14.77;;
9524;SDS011;15940;48.734;9.112;2023-02-15T12:48:17;23.97;;;16.87;;
9524;SDS011;15940;48.734;9.112;2023-02-15T12:50:50;27.77;;;17.10;;
9524;SDS011;15940;48.734;9.112;2023-02-15T12:53:34;22.83;;;17.00;;
9524;SDS011;15940;48.734;9.112;2023-02-15T12:56:05;24.63;;;16.40;;
9524;SDS011;15940;48.734;9.112;2023-02-15T12:58:38;21.27;;;16.93;;
9524;SDS011;15940;48.734;9.112;2023-02-15T13:01:16;23.30;;;17.83;;
9524;SDS011;15940;48.734;9.112;2023-02-15T13:03:53;20.30;;;16.23;;
9524;SDS011;15940;48.734;9.112;2023-02-15T13:06:24;22.83;;;16.37;;
9524;SDS011;15940;48.734;9.112;2023-02-15T13:08:54;25.03;;;16.77;;
9524;SDS011;15940;48.734;9.112;2023-02-15T13:11:32;21.13;;;16.07;;
9524;SDS011;15940;48.734;9.112;2023-02-15T13:14:14;24.80;;;17.47;;
9524;SDS011;15940;48.734;9.112;2023-02-15T13:16:50;22.53;;;16.70;;
9524;SDS011;15940;48.734;9.112;2023-02-15T13:19:22;20.37;;;16.70;;
9524;SDS011;15940;48.734;9.112;2023-02-15T13:22:01;22.43;;;16.80;;
9524;SDS011;15940;48.734;9.112;2023-02-15T13:24:39;21.37;;;16.57;;
9524;SDS011;15940;48.734;9.112;2023-02-15T13:27:16;20.17;;;16.10;;
9524;SDS011;15940;48.734;9.112;2023-02-15T13:29:52;20.67;;;16.00;;
9524;SDS011;15940;48.734;9.112;2023-02-15T13:32:36;24.40;;;17.00;;
9524;SDS011;15940;48.734;9.112;2023-02-15T13:35:09;20.63;;;17.03;;
9524;SDS011;15940;48.734;9.112;2023-02-15T13:37:50;20.87;;;17.03;;
9524;SDS011;15940;48.734;9.112;2023-02-15T13:40:45;23.60;;;18.07;;
9524;SDS011;15940;48.734;9.112;2023-02-15T13:43:34;22.23;;;16.53;;
9524;SDS011;15940;48.734;9.112;2023-02-15T13:46:23;17.87;;;15.73;;
9524;SDS011;15940;48.734;9.112;2023-02-15T13:49:31;24.70;;;16.97;;
9524;SDS011;15940;48.734;9.112;2023-02-15T13:52:18;21.00;;;17.23;;
9524;SDS011;15940;48.734;9.112;2023-02-15T13:54:59;23.63;;;17.30;;
9524;SDS011;15940;48.734;9.112;2023-02-15T13:58:02;23.00;;;16.83;;
9524;SDS011;15940;48.734;9.112;2023-02-15T14:01:04;22.43;;;16.40;;
9524;SDS011;15940;48.734;9.112;2023-02-15T14:04:10;22.80;;;16.33;;
9524;SDS011;15940;48.734;9.112;2023-02-15T14:07:25;20.27;;;15.43;;
9524;SDS011;15940;48.734;9.112;2023-02-15T14:17:35;17.97;;;13.00;;
9524;SDS011;15940;48.734;9.112;2023-02-15T14:20:36;17.17;;;13.07;;
9524;SDS011;15940;48.734;9.112;2023-02-15T14:23:30;14.57;;;12.07;;
9524;SDS011;15940;48.734;9.112;2023-02-15T14:26:41;15.33;;;12.23;;
9524;SDS011;15940;48.734;9.112;2023-02-15T14:29:20;16.10;;;11.33;;
9524;SDS011;15940;48.734;9.112;2023-02-15T14:32:22;15.10;;;11.50;;
9524;SDS011;15940;48.734;9.112;2023-02-15T14:35:02;15.03;;;11.17;;
9524;SDS011;15940;48.734;9.112;2023-02-15T14:37:41;13.77;;;10.83;;
9524;SDS011;15940;48.734;9.112;2023-02-15T14:40:26;15.50;;;11.17;;
9524;SDS011;15940;48.734;9.112;2023-02-15T14:43:27;12.80;;;10.83;;
9524;SDS011;15940;48.734;9.112;2023-02-15T14:46:16;14.63;;;10.70;;
9524;SDS011;15940;48.734;9.112;2023-02-15T14:48:57;13.90;;;10.50;;
9524;SDS011;15940;48.734;9.112;2023-02-15T14:57:31;17.57;;;11.73;;
9524;SDS011;15940;48.734;9.112;2023-02-15T15:00:28;14.13;;;11.10;;
9524;SDS011;15940;48.734;9.112;2023-02-15T15:03:10;14.63;;;12.07;;
9524;SDS011;15940;48.734;9.112;2023-02-15T15:05:50;16.67;;;12.57;;
9524;SDS011;15940;48.734;9.112;2023-02-15T15:08:26;13.03;;;11.30;;
9524;SDS011;15940;48.734;9.112;2023-02-15T15:17:12;18.33;;;14.17;;
9524;SDS011;15940;48.734;9.112;2023-02-15T15:26:21;19.77;;;14.73;;
9524;SDS011;15940;48.734;9.112;2023-02-15T15:29:05;20.30;;;14.50;;
9524;SDS011;15940;48.734;9.112;2023-02-15T15:31:43;20.03;;;14.67;;
9524;SDS011;15940;48.734;9.112;2023-02-15T15:34:22;17.33;;;13.23;;
9524;SDS011;15940;48.734;9.112;2023-02-15T15:37:54;16.13;;;12.53;;
9524;SDS011;15940;48.734;9.112;2023-02-15T15:41:10;20.77;;;13.63;;
9524;SDS011;15940;48.734;9.112;2023-02-15T15:47:53;19.33;;;13.07;;
9524;SDS011;15940;48.734;9.112;2023-02-15T15:51:09;20.57;;;13.20;;
9524;SDS011;15940;48.734;9.112;2023-02-15T15:57:12;15.00;;;12.10;;
9524;SDS011;15940;48.734;9.112;2023-02-15T15:59:51;15.10;;;13.13;;
9524;SDS011;15940;48.734;9.112;2023-02-15T16:02:22;20.30;;;12.90;;
9524;SDS011;15940;48.734;9.112;2023-02-15T16:05:05;16.30;;;12.80;;
9524;SDS011;15940;48.734;9.112;2023-02-15T16:07:39;18.00;;;13.33;;
9524;SDS011;15940;48.734;9.112;2023-02-15T16:10:20;15.80;;;12.70;;
9524;SDS011;15940;48.734;9.112;2023-02-15T16:13:04;15.90;;;12.80;;
9524;SDS011;15940;48.734;9.112;2023-02-15T16:15:47;16.33;;;12.90;;